createdAt,value
2022-10-02T00:02:47.326Z,99046.53
2022-10-02T00:08:57.050Z,99052.13
2022-10-02T00:15:13.428Z,99057.50
2022-10-02T00:21:45.388Z,99065.97
2022-10-02T00:28:16.781Z,99070.31
2022-10-02T00:34:49.416Z,99067.22
2022-10-02T00:41:43.392Z,99065.97
2022-10-02T00:55:48.154Z,99063.25
2022-10-02T01:02:14.147Z,99062.69
2022-10-02T01:08:17.394Z,99062.88
2022-10-02T01:14:19.477Z,99065.75
2022-10-02T01:20:41.634Z,99070.72
2022-10-02T01:33:02.683Z,99081.81
2022-10-02T01:39:04.927Z,99069.84
2022-10-02T01:45:08.972Z,99083.03
2022-10-02T01:51:22.607Z,99074.81
2022-10-02T01:57:46.462Z,99077.94
2022-10-02T02:11:23.878Z,99088.22
2022-10-02T02:18:03.316Z,99091.94
2022-10-02T02:24:24.554Z,99090.72
2022-10-02T02:30:30.161Z,99095.22
2022-10-02T02:36:44.850Z,99095.00
2022-10-02T02:42:58.533Z,99091.84
2022-10-02T02:49:11.608Z,99096.41
2022-10-02T02:55:20.119Z,99099.47
2022-10-02T03:01:22.576Z,99101.56
2022-10-02T03:07:24.735Z,99085.41
2022-10-02T03:14:46.801Z,99094.31
2022-10-02T03:21:21.641Z,99108.28
2022-10-02T03:27:43.117Z,99100.44
2022-10-02T03:33:50.144Z,99102.34
2022-10-02T03:39:52.601Z,99101.25
2022-10-02T03:45:54.805Z,99106.63
2022-10-02T03:51:56.681Z,99090.25
2022-10-02T03:58:04.574Z,99100.22
2022-10-02T04:04:17.733Z,99084.50
2022-10-02T04:10:57.571Z,99096.50
2022-10-02T04:17:20.831Z,99083.31
2022-10-02T04:23:39.748Z,99076.63
2022-10-02T04:30:06.835Z,99079.13
2022-10-02T04:36:38.548Z,99106.16
2022-10-02T04:43:07.822Z,99114.00
2022-10-02T04:50:04.281Z,99101.66
2022-10-02T04:56:09.185Z,99095.19
2022-10-02T05:02:34.706Z,99107.00
2022-10-02T05:09:48.127Z,99101.00
2022-10-02T05:16:29.340Z,99106.78
2022-10-02T05:22:55.099Z,99107.88
2022-10-02T05:29:21.817Z,99111.53
2022-10-02T05:35:35.572Z,99107.59
2022-10-02T05:42:02.559Z,99119.22
2022-10-02T05:49:14.255Z,99099.53
2022-10-02T05:55:28.107Z,99104.28
2022-10-02T06:01:47.591Z,99122.91
2022-10-02T06:07:57.829Z,99120.22
2022-10-02T06:14:10.394Z,99135.88
2022-10-02T06:20:18.152Z,99145.88
2022-10-02T06:27:04.561Z,99144.47
2022-10-02T06:33:09.323Z,99140.50
2022-10-02T06:46:49.394Z,99150.69
2022-10-02T06:53:35.215Z,99154.78
2022-10-02T07:00:16.480Z,99156.25
2022-10-02T07:07:16.074Z,99153.16
2022-10-02T07:13:36.582Z,99154.69
2022-10-02T07:19:50.432Z,99168.19
2022-10-02T07:27:01.222Z,99170.28
2022-10-02T07:33:30.230Z,99177.34
2022-10-02T07:40:13.453Z,99179.22
2022-10-02T07:46:39.375Z,99180.16
2022-10-02T07:53:13.463Z,99189.38
2022-10-02T07:59:41.578Z,99198.50
2022-10-02T08:05:54.569Z,99199.03
2022-10-02T08:12:43.094Z,99200.84
2022-10-02T08:18:52.795Z,99195.50
2022-10-02T08:25:06.083Z,99201.84
2022-10-02T08:31:13.601Z,99216.41
2022-10-02T08:45:53.272Z,99219.59
2022-10-02T08:58:58.078Z,99219.94
2022-10-02T09:05:46.997Z,99207.25
2022-10-02T09:12:30.431Z,99209.50
2022-10-02T09:19:05.454Z,99212.66
2022-10-02T09:25:22.539Z,99202.00
2022-10-02T09:32:09.548Z,99205.50
2022-10-02T09:38:27.192Z,99210.91
2022-10-02T09:45:01.419Z,99205.63
2022-10-02T09:51:52.677Z,99204.44
2022-10-02T09:58:44.771Z,99203.84
2022-10-02T10:05:57.899Z,99188.97
2022-10-02T10:12:37.490Z,99214.09
2022-10-02T10:19:15.707Z,99222.34
2022-10-02T10:26:07.129Z,99215.59
2022-10-02T10:32:30.980Z,99219.47
2022-10-02T10:39:20.305Z,99216.31
2022-10-02T10:46:06.419Z,99221.72
2022-10-02T10:52:25.943Z,99211.75
2022-10-02T10:59:09.135Z,99208.75
2022-10-02T11:05:42.992Z,99216.75
2022-10-02T11:12:23.165Z,99224.78
2022-10-02T11:18:42.930Z,99221.88
2022-10-02T11:25:40.883Z,99226.22
2022-10-02T11:32:44.254Z,99214.88
2022-10-02T11:39:15.803Z,99223.75
2022-10-02T11:45:38.439Z,99219.13
2022-10-02T11:52:06.100Z,99218.16
2022-10-02T11:58:45.088Z,99228.16
2022-10-02T12:05:31.512Z,99229.13
2022-10-02T12:12:29.260Z,99239.47
2022-10-02T12:25:46.428Z,99249.19
2022-10-02T12:31:54.091Z,99245.00
2022-10-02T12:38:16.838Z,99251.00
2022-10-02T12:45:16.447Z,99255.78
2022-10-02T12:51:44.192Z,99251.53
2022-10-02T12:58:25.209Z,99262.47
2022-10-02T13:04:34.975Z,99257.25
2022-10-02T13:10:57.350Z,99245.09
2022-10-02T13:17:17.798Z,99253.06
2022-10-02T13:23:58.866Z,99257.28
2022-10-02T13:30:24.144Z,99258.47
2022-10-02T13:36:55.687Z,99266.88
2022-10-02T13:43:34.498Z,99270.31
2022-10-02T13:56:36.727Z,99280.38
2022-10-02T14:03:24.505Z,99275.09
2022-10-02T14:09:58.037Z,99273.84
2022-10-02T14:16:50.239Z,99274.72
2022-10-02T14:23:47.546Z,99267.16
2022-10-02T14:36:20.892Z,99284.88
2022-10-02T14:42:48.189Z,99282.50
2022-10-02T14:49:32.069Z,99288.63
2022-10-02T14:55:56.900Z,99281.97
2022-10-02T15:02:13.984Z,99289.56
2022-10-02T15:08:48.049Z,99352.25
2022-10-02T15:15:15.968Z,99334.84
2022-10-02T15:21:38.039Z,99329.00
2022-10-02T15:28:12.088Z,99336.38
2022-10-02T15:34:23.625Z,99333.84
2022-10-02T15:40:54.993Z,99338.38
2022-10-02T15:55:22.428Z,99333.56
2022-10-02T16:01:55.499Z,99348.19
2022-10-02T16:08:19.504Z,99367.44
2022-10-02T16:15:02.738Z,99371.31
2022-10-02T16:21:55.260Z,99390.75
2022-10-02T16:28:41.361Z,99413.00
2022-10-02T16:35:12.477Z,99423.38
2022-10-02T16:41:49.732Z,99434.69
2022-10-02T16:48:15.088Z,99446.91
2022-10-02T16:54:35.419Z,99451.88
2022-10-02T17:00:59.467Z,99468.44
2022-10-02T17:07:15.615Z,99484.06
2022-10-02T17:14:04.899Z,99494.69
2022-10-02T17:20:27.322Z,99503.09
2022-10-02T17:27:15.094Z,99497.41
2022-10-02T17:33:22.305Z,99500.78
2022-10-02T17:40:05.089Z,99503.50
2022-10-02T17:46:18.931Z,99518.03
2022-10-02T17:53:03.540Z,99532.34
2022-10-02T17:59:34.747Z,99542.09
2022-10-02T18:06:26.921Z,99546.22
2022-10-02T18:12:56.544Z,99557.19
2022-10-02T18:19:48.865Z,99570.81
2022-10-02T18:33:33.212Z,99579.97
2022-10-02T18:40:15.519Z,99580.56
2022-10-02T18:46:32.593Z,99601.91
2022-10-02T19:00:15.607Z,99611.69
2022-10-02T19:06:34.517Z,99617.66
2022-10-02T19:12:42.980Z,99633.13
2022-10-02T19:18:46.336Z,99638.03
2022-10-02T19:25:35.161Z,99653.00
2022-10-02T19:31:39.918Z,99663.16
2022-10-02T19:37:54.961Z,99664.41
2022-10-02T19:44:03.281Z,99678.09
2022-10-02T19:50:08.541Z,99683.41
2022-10-02T19:56:26.344Z,99694.31
2022-10-02T20:02:36.665Z,99696.50
2022-10-02T20:09:19.306Z,99695.66
2022-10-02T20:16:18.249Z,99705.88
2022-10-02T20:22:50.116Z,99716.94
2022-10-02T20:29:03.301Z,99732.41
2022-10-02T20:35:45.094Z,99727.03
2022-10-02T20:42:35.627Z,99743.91
2022-10-02T20:49:13.753Z,99751.06
2022-10-02T20:56:12.484Z,99756.81
2022-10-02T21:02:59.849Z,99765.81
2022-10-02T21:09:34.175Z,99768.03
2022-10-02T21:15:52.167Z,99770.66
2022-10-02T21:22:02.941Z,99776.19
2022-10-02T21:28:41.365Z,99786.38
2022-10-02T21:35:19.219Z,99797.91
2022-10-02T21:41:49.074Z,99801.06
2022-10-02T21:48:35.054Z,99806.56
2022-10-02T22:01:57.460Z,99820.69
2022-10-02T22:08:17.145Z,99822.31
2022-10-02T22:14:40.763Z,99827.16
2022-10-02T22:21:21.945Z,99831.66
2022-10-02T22:28:03.278Z,99837.66
2022-10-02T22:34:10.923Z,99841.09
2022-10-02T22:40:28.070Z,99840.03
2022-10-02T22:46:47.618Z,99852.03
2022-10-02T22:53:31.002Z,99857.50
2022-10-02T23:00:11.058Z,99858.25
2022-10-02T23:06:31.666Z,99860.09
2022-10-02T23:12:59.256Z,99861.22
2022-10-02T23:19:28.446Z,99856.97
2022-10-02T23:26:13.184Z,99866.34
2022-10-02T23:32:50.945Z,99867.72
2022-10-02T23:39:01.825Z,99872.88
2022-10-02T23:45:27.214Z,99873.91
2022-10-02T23:52:35.051Z,99878.72
2022-10-02T23:58:55.740Z,99886.47
